DAL2979 KMSP-KMKE
Flight info
| Callsign | DAL2979 |
|---|---|
| Flight time | 0h 45m |
| Altitude | 23000 |
| Route | COULT7 DLL BAE |
| Aircraft | B38M/M-SDE1FGHILORVWXY/HB1 |
Departure
| Time | 2026-04-15 20:33 |
|---|---|
| Airport | Minneapolis–Saint Paul International Airport / Wold–Chamberlain Field (KMSP) |
Arrival
| Time | 2026-04-15 21:18 |
|---|---|
| Airport | General Mitchell International Airport (KMKE) |
| Time | Latitude | Longitude | Altitude | Speed | Heading |
|---|---|---|---|---|---|
| 2026-04-15 20:03 | 44.88296 | -93.20415 | 838 ft | 0 kts | 210° |
| 2026-04-15 20:23 | 44.88310 | -93.20403 | 828 ft | 2 kts | 214° |
| 2026-04-15 20:24 | 44.88323 | -93.20389 | 831 ft | 2 kts | 219° |
| 2026-04-15 20:24 | 44.88344 | -93.20353 | 835 ft | 2 kts | 254° |
| 2026-04-15 20:24 | 44.88344 | -93.20330 | 838 ft | 2 kts | 287° |
| 2026-04-15 20:25 | 44.88340 | -93.20315 | 838 ft | 1 kts | 300° |
| 2026-04-15 20:25 | 44.88339 | -93.20314 | 838 ft | 0 kts | 301° |
| 2026-04-15 20:28 | 44.88357 | -93.20339 | 833 ft | 10 kts | 327° |
| 2026-04-15 20:28 | 44.88437 | -93.20414 | 834 ft | 16 kts | 310° |
| 2026-04-15 20:28 | 44.88500 | -93.20559 | 830 ft | 18 kts | 301° |
| 2026-04-15 20:29 | 44.88569 | -93.20718 | 833 ft | 20 kts | 301° |
| 2026-04-15 20:29 | 44.88643 | -93.20891 | 832 ft | 21 kts | 301° |
| 2026-04-15 20:29 | 44.88723 | -93.21075 | 836 ft | 23 kts | 302° |
| 2026-04-15 20:29 | 44.88808 | -93.21269 | 832 ft | 24 kts | 302° |
| 2026-04-15 20:30 | 44.88882 | -93.21439 | 838 ft | 15 kts | 301° |
| 2026-04-15 20:30 | 44.88938 | -93.21570 | 838 ft | 17 kts | 301° |
| 2026-04-15 20:30 | 44.89005 | -93.21725 | 838 ft | 20 kts | 301° |
| 2026-04-15 20:30 | 44.89083 | -93.21905 | 834 ft | 23 kts | 301° |
| 2026-04-15 20:31 | 44.89122 | -93.21995 | 835 ft | 9 kts | 302° |
| 2026-04-15 20:31 | 44.89158 | -93.22075 | 840 ft | 10 kts | 302° |
| 2026-04-15 20:31 | 44.89209 | -93.22142 | 836 ft | 10 kts | 360° |
| 2026-04-15 20:31 | 44.89263 | -93.22105 | 835 ft | 8 kts | 31° |
| 2026-04-15 20:32 | 44.89279 | -93.22054 | 842 ft | 7 kts | 118° |
| 2026-04-15 20:32 | 44.89173 | -93.21811 | 841 ft | 65 kts | 121° |
| 2026-04-15 20:32 | 44.88813 | -93.20983 | 838 ft | 131 kts | 121° |
| 2026-04-15 20:32 | 44.88236 | -93.19662 | 863 ft | 180 kts | 122° |
| 2026-04-15 20:33 | 44.87571 | -93.18154 | 1619 ft | 180 kts | 121° |
| 2026-04-15 20:33 | 44.86917 | -93.16628 | 2367 ft | 189 kts | 121° |
| 2026-04-15 20:33 | 44.86217 | -93.14943 | 2816 ft | 211 kts | 116° |
| 2026-04-15 20:33 | 44.85678 | -93.12908 | 3274 ft | 232 kts | 107° |
| 2026-04-15 20:34 | 44.85169 | -93.10683 | 3765 ft | 251 kts | 108° |
| 2026-04-15 20:34 | 44.84595 | -93.08230 | 4350 ft | 268 kts | 108° |
| 2026-04-15 20:34 | 44.84005 | -93.05743 | 5154 ft | 273 kts | 109° |
| 2026-04-15 20:34 | 44.83390 | -93.03168 | 5943 ft | 281 kts | 109° |
| 2026-04-15 20:35 | 44.82749 | -93.00497 | 6701 ft | 287 kts | 109° |
| 2026-04-15 20:35 | 44.82111 | -92.97853 | 7471 ft | 291 kts | 110° |
| 2026-04-15 20:35 | 44.81452 | -92.95128 | 8264 ft | 296 kts | 110° |
| 2026-04-15 20:35 | 44.80784 | -92.92367 | 9084 ft | 300 kts | 111° |
| 2026-04-15 20:36 | 44.80107 | -92.89572 | 9859 ft | 304 kts | 112° |
| 2026-04-15 20:36 | 44.79417 | -92.86719 | 10433 ft | 316 kts | 112° |
| 2026-04-15 20:36 | 44.78686 | -92.83705 | 10821 ft | 333 kts | 112° |
| 2026-04-15 20:37 | 44.77217 | -92.77669 | 11855 ft | 351 kts | 112° |
| 2026-04-15 20:37 | 44.76421 | -92.74403 | 12597 ft | 356 kts | 112° |
| 2026-04-15 20:37 | 44.75611 | -92.71083 | 13335 ft | 361 kts | 113° |
| 2026-04-15 20:37 | 44.74792 | -92.67730 | 14027 ft | 366 kts | 113° |
| 2026-04-15 20:38 | 44.73959 | -92.64328 | 14706 ft | 370 kts | 113° |
| 2026-04-15 20:38 | 44.73123 | -92.60921 | 15384 ft | 375 kts | 113° |
| 2026-04-15 20:38 | 44.72267 | -92.57432 | 16066 ft | 380 kts | 114° |
| 2026-04-15 20:38 | 44.71399 | -92.53901 | 16730 ft | 385 kts | 114° |
| 2026-04-15 20:39 | 44.70498 | -92.50334 | 17378 ft | 388 kts | 118° |
| 2026-04-15 20:39 | 44.69120 | -92.47133 | 18040 ft | 382 kts | 132° |
| 2026-04-15 20:39 | 44.67572 | -92.44071 | 18551 ft | 388 kts | 131° |
| 2026-04-15 20:39 | 44.65997 | -92.40961 | 19161 ft | 390 kts | 132° |
| 2026-04-15 20:40 | 44.64411 | -92.37855 | 19733 ft | 393 kts | 132° |
| 2026-04-15 20:40 | 44.62808 | -92.34728 | 20314 ft | 396 kts | 133° |
| 2026-04-15 20:40 | 44.61196 | -92.31590 | 20919 ft | 397 kts | 133° |
| 2026-04-15 20:40 | 44.59572 | -92.28434 | 21481 ft | 400 kts | 133° |
| 2026-04-15 20:41 | 44.57937 | -92.25256 | 22049 ft | 403 kts | 133° |
| 2026-04-15 20:41 | 44.56291 | -92.22065 | 22600 ft | 407 kts | 133° |
| 2026-04-15 20:41 | 44.54615 | -92.18818 | 22796 ft | 416 kts | 133° |
| 2026-04-15 20:41 | 44.52891 | -92.15481 | 22792 ft | 430 kts | 133° |
| 2026-04-15 20:42 | 44.51114 | -92.12046 | 22791 ft | 442 kts | 133° |
| 2026-04-15 20:42 | 44.49287 | -92.08517 | 22786 ft | 453 kts | 133° |
| 2026-04-15 20:42 | 44.47411 | -92.04901 | 22789 ft | 463 kts | 133° |
| 2026-04-15 20:42 | 44.45503 | -92.01227 | 22789 ft | 470 kts | 133° |
| 2026-04-15 20:43 | 44.43578 | -91.97524 | 22813 ft | 471 kts | 133° |
| 2026-04-15 20:43 | 44.41648 | -91.93816 | 22825 ft | 471 kts | 133° |
| 2026-04-15 20:43 | 44.39716 | -91.90109 | 22821 ft | 472 kts | 133° |
| 2026-04-15 20:43 | 44.37786 | -91.86405 | 22826 ft | 472 kts | 131° |
| 2026-04-15 20:44 | 44.36100 | -91.82414 | 22824 ft | 480 kts | 124° |
| 2026-04-15 20:44 | 44.34526 | -91.78307 | 22816 ft | 480 kts | 124° |
| 2026-04-15 20:44 | 44.32957 | -91.74187 | 22813 ft | 481 kts | 124° |
| 2026-04-15 20:44 | 44.31388 | -91.70064 | 22809 ft | 481 kts | 124° |
| 2026-04-15 20:45 | 44.29816 | -91.65938 | 22810 ft | 481 kts | 124° |
| 2026-04-15 20:45 | 44.28242 | -91.61812 | 22807 ft | 482 kts | 124° |
| 2026-04-15 20:45 | 44.26666 | -91.57686 | 22816 ft | 482 kts | 124° |
| 2026-04-15 20:45 | 44.25088 | -91.53559 | 22808 ft | 482 kts | 124° |
| 2026-04-15 20:46 | 44.23508 | -91.49435 | 22801 ft | 482 kts | 124° |
| 2026-04-15 20:46 | 44.21926 | -91.45310 | 22806 ft | 483 kts | 124° |
| 2026-04-15 20:46 | 44.20341 | -91.41185 | 22806 ft | 483 kts | 124° |
| 2026-04-15 20:46 | 44.18751 | -91.37053 | 22815 ft | 483 kts | 125° |
| 2026-04-15 20:47 | 44.17163 | -91.32932 | 22797 ft | 483 kts | 125° |
| 2026-04-15 20:47 | 44.15594 | -91.28866 | 22810 ft | 483 kts | 125° |
| 2026-04-15 20:47 | 44.14004 | -91.24751 | 22810 ft | 483 kts | 125° |
| 2026-04-15 20:47 | 44.12393 | -91.20588 | 22810 ft | 483 kts | 125° |
| 2026-04-15 20:48 | 44.10799 | -91.16476 | 22815 ft | 482 kts | 125° |
| 2026-04-15 20:48 | 44.09226 | -91.12422 | 22810 ft | 482 kts | 125° |
| 2026-04-15 20:48 | 44.07634 | -91.08326 | 22810 ft | 482 kts | 125° |
| 2026-04-15 20:48 | 44.06038 | -91.04227 | 22807 ft | 482 kts | 125° |
| 2026-04-15 20:49 | 44.04443 | -91.00137 | 22802 ft | 481 kts | 125° |
| 2026-04-15 20:49 | 44.02847 | -90.96049 | 22801 ft | 481 kts | 126° |
| 2026-04-15 20:49 | 44.01246 | -90.91955 | 22802 ft | 481 kts | 126° |
| 2026-04-15 20:49 | 43.99650 | -90.87876 | 22801 ft | 481 kts | 126° |
| 2026-04-15 20:50 | 43.98050 | -90.83798 | 22796 ft | 481 kts | 126° |
| 2026-04-15 20:50 | 43.96451 | -90.79725 | 22804 ft | 481 kts | 126° |
| 2026-04-15 20:50 | 43.94849 | -90.75650 | 22801 ft | 481 kts | 126° |
| 2026-04-15 20:50 | 43.93242 | -90.71572 | 22800 ft | 481 kts | 126° |
| 2026-04-15 20:51 | 43.91636 | -90.67498 | 22799 ft | 482 kts | 126° |
| 2026-04-15 20:51 | 43.90024 | -90.63418 | 22806 ft | 483 kts | 126° |
| 2026-04-15 20:51 | 43.88411 | -90.59338 | 22801 ft | 483 kts | 126° |
| 2026-04-15 20:51 | 43.86795 | -90.55261 | 22801 ft | 484 kts | 126° |
| 2026-04-15 20:52 | 43.85173 | -90.51171 | 22803 ft | 484 kts | 126° |
| 2026-04-15 20:52 | 43.83549 | -90.47083 | 22800 ft | 484 kts | 126° |
| 2026-04-15 20:52 | 43.81921 | -90.42990 | 22800 ft | 485 kts | 126° |
| 2026-04-15 20:52 | 43.80292 | -90.38902 | 22801 ft | 485 kts | 126° |
| 2026-04-15 20:53 | 43.78662 | -90.34816 | 22801 ft | 485 kts | 126° |
| 2026-04-15 20:53 | 43.77028 | -90.30726 | 22810 ft | 486 kts | 126° |
| 2026-04-15 20:53 | 43.75392 | -90.26635 | 22806 ft | 486 kts | 126° |
| 2026-04-15 20:53 | 43.73753 | -90.22546 | 22804 ft | 486 kts | 126° |
| 2026-04-15 20:54 | 43.72114 | -90.18462 | 22795 ft | 486 kts | 126° |
| 2026-04-15 20:54 | 43.70473 | -90.14378 | 22812 ft | 486 kts | 126° |
| 2026-04-15 20:54 | 43.68830 | -90.10295 | 22811 ft | 486 kts | 126° |
| 2026-04-15 20:54 | 43.67183 | -90.06208 | 22814 ft | 486 kts | 126° |
| 2026-04-15 20:55 | 43.65538 | -90.02131 | 22820 ft | 487 kts | 126° |
| 2026-04-15 20:55 | 43.63888 | -89.98049 | 22820 ft | 487 kts | 126° |
| 2026-04-15 20:55 | 43.62238 | -89.93972 | 22825 ft | 487 kts | 126° |
| 2026-04-15 20:55 | 43.60585 | -89.89889 | 22831 ft | 487 kts | 126° |
| 2026-04-15 20:56 | 43.58928 | -89.85804 | 22826 ft | 488 kts | 126° |
| 2026-04-15 20:56 | 43.57833 | -89.83107 | 22825 ft | 488 kts | 126° |
| 2026-04-15 20:56 | 43.55671 | -89.77773 | 22721 ft | 470 kts | 125° |
| 2026-04-15 20:56 | 43.54350 | -89.73676 | 22451 ft | 465 kts | 118° |
| 2026-04-15 20:57 | 43.53545 | -89.70909 | 22264 ft | 457 kts | 118° |
| 2026-04-15 20:57 | 43.52384 | -89.66883 | 21995 ft | 447 kts | 118° |
| 2026-04-15 20:57 | 43.50891 | -89.61681 | 21628 ft | 435 kts | 118° |
| 2026-04-15 20:57 | 43.50144 | -89.59079 | 21445 ft | 429 kts | 118° |
| 2026-04-15 20:58 | 43.49057 | -89.55292 | 21176 ft | 422 kts | 118° |
| 2026-04-15 20:58 | 43.47982 | -89.51554 | 20895 ft | 420 kts | 118° |
| 2026-04-15 20:58 | 43.46908 | -89.47825 | 20622 ft | 419 kts | 118° |
| 2026-04-15 20:58 | 43.45836 | -89.44107 | 20349 ft | 417 kts | 118° |
| 2026-04-15 20:59 | 43.44769 | -89.40410 | 20077 ft | 415 kts | 118° |
| 2026-04-15 20:59 | 43.43705 | -89.36732 | 19815 ft | 413 kts | 118° |
| 2026-04-15 20:59 | 43.42644 | -89.33068 | 19551 ft | 411 kts | 118° |
| 2026-04-15 20:59 | 43.41587 | -89.29424 | 19295 ft | 409 kts | 118° |
| 2026-04-15 21:00 | 43.40535 | -89.25801 | 19032 ft | 408 kts | 118° |
| 2026-04-15 21:00 | 43.39484 | -89.22190 | 18779 ft | 406 kts | 118° |
| 2026-04-15 21:00 | 43.38460 | -89.18672 | 18674 ft | 396 kts | 118° |
| 2026-04-15 21:00 | 43.37442 | -89.15185 | 18375 ft | 392 kts | 118° |
| 2026-04-15 21:01 | 43.36431 | -89.11720 | 17956 ft | 390 kts | 118° |
| 2026-04-15 21:01 | 43.35421 | -89.08269 | 17546 ft | 387 kts | 118° |
| 2026-04-15 21:01 | 43.34423 | -89.04860 | 17246 ft | 382 kts | 117° |
| 2026-04-15 21:01 | 43.33434 | -89.01490 | 16912 ft | 378 kts | 117° |
| 2026-04-15 21:02 | 43.32451 | -88.98141 | 16615 ft | 380 kts | 117° |
| 2026-04-15 21:02 | 43.31484 | -88.94855 | 16272 ft | 385 kts | 117° |
| 2026-04-15 21:02 | 43.30469 | -88.91406 | 15894 ft | 385 kts | 117° |
| 2026-04-15 21:02 | 43.29465 | -88.88001 | 15517 ft | 384 kts | 117° |
| 2026-04-15 21:03 | 43.28467 | -88.84618 | 15100 ft | 383 kts | 117° |
| 2026-04-15 21:03 | 43.27466 | -88.81232 | 14704 ft | 381 kts | 116° |
| 2026-04-15 21:03 | 43.26471 | -88.77873 | 14333 ft | 378 kts | 116° |
| 2026-04-15 21:03 | 43.25482 | -88.74535 | 13952 ft | 376 kts | 116° |
| 2026-04-15 21:04 | 43.24498 | -88.71220 | 13561 ft | 374 kts | 116° |
| 2026-04-15 21:04 | 43.23530 | -88.67963 | 13128 ft | 373 kts | 116° |
| 2026-04-15 21:04 | 43.22542 | -88.64645 | 12722 ft | 370 kts | 116° |
| 2026-04-15 21:04 | 43.21587 | -88.61438 | 12352 ft | 367 kts | 116° |
| 2026-04-15 21:05 | 43.20616 | -88.58182 | 11970 ft | 364 kts | 117° |
| 2026-04-15 21:05 | 43.19673 | -88.55028 | 11596 ft | 361 kts | 117° |
| 2026-04-15 21:05 | 43.18713 | -88.51813 | 11223 ft | 359 kts | 117° |
| 2026-04-15 21:05 | 43.17782 | -88.48706 | 10850 ft | 356 kts | 117° |
| 2026-04-15 21:06 | 43.16885 | -88.45712 | 10602 ft | 346 kts | 117° |
| 2026-04-15 21:06 | 43.15986 | -88.42711 | 10470 ft | 327 kts | 117° |
| 2026-04-15 21:06 | 43.15154 | -88.39941 | 10345 ft | 312 kts | 118° |
| 2026-04-15 21:06 | 43.14338 | -88.37229 | 10197 ft | 304 kts | 118° |
| 2026-04-15 21:07 | 43.13532 | -88.34549 | 10034 ft | 298 kts | 118° |
| 2026-04-15 21:07 | 43.12744 | -88.31933 | 9746 ft | 296 kts | 118° |
| 2026-04-15 21:07 | 43.11961 | -88.29336 | 9425 ft | 295 kts | 118° |
| 2026-04-15 21:07 | 43.11287 | -88.26714 | 9098 ft | 296 kts | 114° |
| 2026-04-15 21:08 | 43.10653 | -88.24056 | 8795 ft | 294 kts | 114° |
| 2026-04-15 21:08 | 43.10010 | -88.21400 | 8509 ft | 292 kts | 114° |
| 2026-04-15 21:08 | 43.09372 | -88.18783 | 8242 ft | 289 kts | 114° |
| 2026-04-15 21:08 | 43.08736 | -88.16186 | 7959 ft | 287 kts | 114° |
| 2026-04-15 21:09 | 43.08103 | -88.13611 | 7686 ft | 285 kts | 114° |
| 2026-04-15 21:09 | 43.07474 | -88.11055 | 7386 ft | 280 kts | 114° |
| 2026-04-15 21:09 | 43.06862 | -88.08574 | 7111 ft | 270 kts | 114° |
| 2026-04-15 21:09 | 43.06273 | -88.06191 | 6863 ft | 260 kts | 114° |
| 2026-04-15 21:10 | 43.05699 | -88.03870 | 6707 ft | 254 kts | 114° |
| 2026-04-15 21:10 | 43.05143 | -88.01621 | 6587 ft | 247 kts | 114° |
| 2026-04-15 21:10 | 43.04594 | -87.99405 | 6468 ft | 245 kts | 114° |
| 2026-04-15 21:10 | 43.04048 | -87.97205 | 6353 ft | 244 kts | 114° |
| 2026-04-15 21:11 | 43.03513 | -87.95041 | 6270 ft | 234 kts | 114° |
| 2026-04-15 21:11 | 43.03007 | -87.93002 | 6146 ft | 218 kts | 115° |
| 2026-04-15 21:11 | 43.02572 | -87.91075 | 6006 ft | 213 kts | 104° |
| 2026-04-15 21:11 | 43.02700 | -87.89046 | 5753 ft | 217 kts | 78° |
| 2026-04-15 21:12 | 43.03131 | -87.87068 | 5509 ft | 217 kts | 76° |
| 2026-04-15 21:12 | 43.03582 | -87.85096 | 5205 ft | 218 kts | 76° |
| 2026-04-15 21:12 | 43.04045 | -87.83130 | 4945 ft | 217 kts | 76° |
| 2026-04-15 21:12 | 43.04509 | -87.81176 | 4681 ft | 215 kts | 76° |
| 2026-04-15 21:13 | 43.04815 | -87.79193 | 4384 ft | 211 kts | 91° |
| 2026-04-15 21:13 | 43.04654 | -87.77246 | 4094 ft | 202 kts | 114° |
| 2026-04-15 21:13 | 43.03995 | -87.75616 | 3853 ft | 193 kts | 136° |
| 2026-04-15 21:13 | 43.03008 | -87.74436 | 3657 ft | 186 kts | 154° |
| 2026-04-15 21:14 | 43.01846 | -87.73754 | 3621 ft | 180 kts | 171° |
| 2026-04-15 21:14 | 43.00611 | -87.73594 | 3396 ft | 176 kts | 188° |
| 2026-04-15 21:14 | 42.99441 | -87.73982 | 3142 ft | 172 kts | 206° |
| 2026-04-15 21:14 | 42.98446 | -87.74860 | 2865 ft | 170 kts | 224° |
| 2026-04-15 21:15 | 42.97739 | -87.76145 | 2580 ft | 170 kts | 240° |
| 2026-04-15 21:15 | 42.97340 | -87.77547 | 2324 ft | 153 kts | 250° |
| 2026-04-15 21:15 | 42.97049 | -87.78907 | 2018 ft | 149 kts | 251° |
| 2026-04-15 21:15 | 42.96739 | -87.80256 | 1796 ft | 149 kts | 248° |
| 2026-04-15 21:16 | 42.96388 | -87.81582 | 1612 ft | 147 kts | 249° |
| 2026-04-15 21:16 | 42.96059 | -87.82915 | 1411 ft | 151 kts | 251° |
| 2026-04-15 21:16 | 42.95726 | -87.84286 | 1290 ft | 151 kts | 251° |
| 2026-04-15 21:16 | 42.95396 | -87.85628 | 1118 ft | 148 kts | 251° |
| 2026-04-15 21:17 | 42.95081 | -87.86944 | 945 ft | 145 kts | 252° |
| 2026-04-15 21:17 | 42.94756 | -87.88290 | 801 ft | 152 kts | 252° |
| 2026-04-15 21:17 | 42.94436 | -87.89617 | 687 ft | 134 kts | 251° |
| 2026-04-15 21:17 | 42.94224 | -87.90482 | 688 ft | 64 kts | 251° |
| 2026-04-15 21:18 | 42.94142 | -87.90817 | 684 ft | 26 kts | 252° |
| 2026-04-15 21:18 | 42.94094 | -87.91019 | 687 ft | 14 kts | 252° |
| 2026-04-15 21:18 | 42.94122 | -87.91140 | 690 ft | 15 kts | 334° |
| 2026-04-15 21:18 | 42.94184 | -87.91117 | 690 ft | 10 kts | 65° |
| 2026-04-15 21:19 | 42.94209 | -87.91015 | 690 ft | 12 kts | 71° |
| 2026-04-15 21:19 | 42.94239 | -87.90893 | 690 ft | 15 kts | 71° |
| 2026-04-15 21:19 | 42.94273 | -87.90752 | 683 ft | 17 kts | 71° |
| 2026-04-15 21:19 | 42.94313 | -87.90591 | 690 ft | 19 kts | 71° |
| 2026-04-15 21:20 | 42.94356 | -87.90413 | 688 ft | 21 kts | 71° |
| 2026-04-15 21:20 | 42.94404 | -87.90215 | 689 ft | 23 kts | 71° |
| 2026-04-15 21:20 | 42.94448 | -87.90036 | 685 ft | 15 kts | 72° |
| 2026-04-15 21:20 | 42.94497 | -87.89970 | 686 ft | 10 kts | 10° |
| 2026-04-15 21:21 | 42.94546 | -87.89894 | 687 ft | 12 kts | 60° |
| 2026-04-15 21:21 | 42.94590 | -87.89792 | 684 ft | 12 kts | 53° |
| 2026-04-15 21:21 | 42.94660 | -87.89741 | 688 ft | 11 kts | 9° |
| 2026-04-15 21:21 | 42.94732 | -87.89729 | 687 ft | 11 kts | 6° |
| 2026-04-15 21:22 | 42.94798 | -87.89720 | 688 ft | 7 kts | 6° |
| 2026-04-15 21:22 | 42.94838 | -87.89714 | 685 ft | 5 kts | 4° |
| 2026-04-15 21:22 | 42.94879 | -87.89729 | 687 ft | 5 kts | 315° |
| 2026-04-15 21:22 | 42.94881 | -87.89755 | 688 ft | 4 kts | 263° |
| 2026-04-15 21:23 | 42.94873 | -87.89794 | 688 ft | 2 kts | 256° |
| 2026-04-15 21:23 | 42.94870 | -87.89810 | 688 ft | 2 kts | 255° |
| 2026-04-15 21:23 | 42.94870 | -87.89812 | 688 ft | 0 kts | 255° |